createdAt,value
2019-06-26T00:00:03.063Z,18.6
2019-06-26T00:15:03.419Z,18.8
2019-06-26T00:30:02.654Z,18.5
2019-06-26T00:45:02.910Z,18.4
2019-06-26T01:00:03.230Z,18.1
2019-06-26T01:15:02.401Z,18.1
2019-06-26T01:30:02.792Z,17.9
2019-06-26T01:45:03.046Z,17.9
2019-06-26T02:00:03.285Z,17.8
2019-06-26T02:15:02.513Z,17.6
2019-06-26T02:30:02.891Z,17.2
2019-06-26T02:45:03.204Z,17.2
2019-06-26T03:00:02.774Z,17.2
2019-06-26T03:15:08.621Z,17.1
2019-06-26T03:30:02.976Z,17.2
2019-06-26T03:45:03.211Z,17.1
2019-06-26T04:00:02.487Z,16.9
2019-06-26T04:15:02.733Z,17.1
2019-06-26T04:30:03.049Z,17.3
2019-06-26T04:45:03.308Z,17.9
2019-06-26T05:00:02.636Z,18.1
2019-06-26T05:15:02.879Z,18.4
2019-06-26T05:30:03.252Z,19.1
2019-06-26T05:45:02.957Z,19.8
2019-06-26T06:00:02.615Z,20.5
2019-06-26T06:15:02.939Z,21.3
2019-06-26T06:30:03.458Z,21.6
2019-06-26T06:45:02.724Z,22.1
2019-06-26T07:00:02.966Z,22.6
2019-06-26T07:15:03.289Z,22.8
2019-06-26T07:30:02.578Z,23
2019-06-26T07:45:02.823Z,24.4
2019-06-26T08:00:03.165Z,25.8
2019-06-26T08:15:03.341Z,26.1
2019-06-26T08:30:02.741Z,26.8
2019-06-26T08:45:02.975Z,29.4
2019-06-26T09:00:03.176Z,29.9
2019-06-26T09:15:02.512Z,30.1
2019-06-26T09:30:02.901Z,29.9
2019-06-26T09:45:03.123Z,33.5
2019-06-26T10:00:03.417Z,32.4
2019-06-26T10:15:02.644Z,32.8
2019-06-26T10:30:03.012Z,34.3
2019-06-26T10:45:03.180Z,34.2
2019-06-26T11:00:02.496Z,34.9
2019-06-26T11:15:02.700Z,33
2019-06-26T11:30:03.122Z,34.9
2019-06-26T11:45:03.379Z,35.1
2019-06-26T12:00:02.566Z,34.1
2019-06-26T12:15:02.899Z,36.2
2019-06-26T12:30:03.237Z,34.8
2019-06-26T12:45:02.460Z,34.5
2019-06-26T13:00:02.917Z,35.5
2019-06-26T13:15:03.012Z,35.4
2019-06-26T13:30:03.295Z,36.5
2019-06-26T13:45:02.694Z,36.3
2019-06-26T14:00:02.861Z,35
2019-06-26T14:15:03.070Z,36.6
2019-06-26T14:30:03.454Z,35.9
2019-06-26T14:45:02.598Z,33.5
2019-06-26T15:00:02.971Z,34.1
2019-06-26T15:15:03.238Z,33.9
2019-06-26T15:30:02.464Z,33.2
2019-06-26T15:45:02.726Z,32.3
2019-06-26T16:00:02.967Z,31.7
2019-06-26T16:15:03.208Z,32.1
2019-06-26T16:30:02.523Z,30.8
2019-06-26T16:45:02.765Z,30.4
2019-06-26T17:00:09.205Z,30
2019-06-26T17:15:04.295Z,30.1
2019-06-26T17:30:02.651Z,29.1
2019-06-26T17:45:02.962Z,28.3
2019-06-26T18:00:03.158Z,27.4
2019-06-26T18:15:03.381Z,27.3
2019-06-26T18:30:02.717Z,27.2
2019-06-26T18:45:02.940Z,25.8
2019-06-26T19:00:03.299Z,25.3
2019-06-26T19:15:02.492Z,24.8
2019-06-26T19:30:02.811Z,24.4
2019-06-26T19:45:03.044Z,24.4
2019-06-26T20:00:03.417Z,23.9
2019-06-26T20:15:02.553Z,23.8
2019-06-26T20:30:02.905Z,23.2
2019-06-26T20:45:03.128Z,23.6
2019-06-26T21:00:03.382Z,23.1
2019-06-26T21:15:02.629Z,23.1
2019-06-26T21:30:02.974Z,23
2019-06-26T21:45:03.204Z,23.2
2019-06-26T22:00:02.564Z,22.1
2019-06-26T22:15:02.736Z,22.2
2019-06-26T22:30:03.070Z,21.8
2019-06-26T22:45:03.295Z,21.6
2019-06-26T23:00:02.588Z,21.6
2019-06-26T23:15:02.823Z,21.2
2019-06-26T23:30:03.126Z,20.8
2019-06-26T23:45:03.378Z,21
